createdAt,value
2022-10-15T00:01:51.982Z,97993.47
2022-10-15T00:04:21.103Z,97999.38
2022-10-15T00:06:49.849Z,98002.84
2022-10-15T00:09:18.669Z,98000.97
2022-10-15T00:11:47.440Z,97999.38
2022-10-15T00:14:17.096Z,98003.38
2022-10-15T00:16:46.497Z,98006.03
2022-10-15T00:19:15.556Z,98002.34
2022-10-15T00:21:44.425Z,97999.41
2022-10-15T00:24:13.288Z,97997.28
2022-10-15T00:26:42.156Z,98012.44
2022-10-15T00:29:11.054Z,98001.28
2022-10-15T00:31:40.130Z,98011.91
2022-10-15T00:34:09.804Z,98021.50
2022-10-15T00:36:38.843Z,98022.84
2022-10-15T00:39:08.844Z,98016.78
2022-10-15T00:41:42.491Z,98013.06
2022-10-15T00:44:30.030Z,98013.38
2022-10-15T00:47:17.628Z,98012.31
2022-10-15T00:50:00.423Z,98014.47
2022-10-15T00:52:49.745Z,98021.34
2022-10-15T00:55:26.202Z,98023.22
2022-10-15T00:57:56.658Z,98003.72
2022-10-15T01:00:26.006Z,98027.50
2022-10-15T01:02:55.030Z,98027.53
2022-10-15T01:05:25.097Z,98025.16
2022-10-15T01:07:53.973Z,98038.47
2022-10-15T01:10:28.511Z,98034.50
2022-10-15T01:13:10.497Z,98045.19
2022-10-15T01:16:11.816Z,98044.16
2022-10-15T01:19:09.703Z,98056.69
2022-10-15T01:21:47.601Z,98044.75
2022-10-15T01:24:44.574Z,98050.63
2022-10-15T01:27:30.787Z,98052.81
2022-10-15T01:30:24.546Z,98055.28
2022-10-15T01:33:11.515Z,98061.16
2022-10-15T01:36:00.180Z,98056.41
2022-10-15T01:38:52.261Z,98068.94
2022-10-15T01:41:44.994Z,98064.97
2022-10-15T01:44:31.736Z,98069.03
2022-10-15T01:47:17.874Z,98063.75
2022-10-15T01:49:48.642Z,98064.56
2022-10-15T01:55:07.858Z,98074.28
2022-10-15T01:57:43.637Z,98076.94
2022-10-15T02:00:14.354Z,98072.97
2022-10-15T02:02:43.537Z,98077.00
2022-10-15T02:05:20.727Z,98077.78
2022-10-15T02:08:18.097Z,98087.94
2022-10-15T02:10:56.725Z,98085.25
2022-10-15T02:13:39.877Z,98083.06
2022-10-15T02:16:36.690Z,98091.00
2022-10-15T02:19:09.112Z,98092.75
2022-10-15T02:21:53.365Z,98089.94
2022-10-15T02:24:26.820Z,98085.22
2022-10-15T02:26:59.631Z,98087.72
2022-10-15T02:29:34.750Z,98085.69
2022-10-15T02:32:08.066Z,98090.94
2022-10-15T02:34:37.566Z,98082.91
2022-10-15T02:37:08.169Z,98093.94
2022-10-15T02:39:37.108Z,98092.00
2022-10-15T02:42:06.987Z,98087.75
2022-10-15T02:44:35.915Z,98097.41
2022-10-15T02:47:05.093Z,98099.66
2022-10-15T02:49:34.318Z,98100.03
2022-10-15T02:52:05.282Z,98098.09
2022-10-15T02:54:34.104Z,98098.84
2022-10-15T02:57:02.951Z,98100.56
2022-10-15T02:59:32.131Z,98109.00
2022-10-15T03:02:01.820Z,98102.94
2022-10-15T03:04:32.687Z,98106.78
2022-10-15T03:07:01.636Z,98106.00
2022-10-15T03:09:31.381Z,98106.69
2022-10-15T03:12:00.146Z,98113.41
2022-10-15T03:16:59.893Z,98110.13
2022-10-15T03:19:30.289Z,98103.41
2022-10-15T03:21:59.219Z,98106.16
2022-10-15T03:24:34.271Z,98099.19
2022-10-15T03:27:03.321Z,98096.66
2022-10-15T03:29:32.196Z,98115.28
2022-10-15T03:32:05.211Z,98111.59
2022-10-15T03:34:34.245Z,98099.59
2022-10-15T03:37:03.533Z,98115.78
2022-10-15T03:39:33.691Z,98110.13
2022-10-15T03:42:06.019Z,98109.97
2022-10-15T03:44:46.621Z,98106.59
2022-10-15T03:47:19.512Z,98111.22
2022-10-15T03:49:50.565Z,98113.94
2022-10-15T03:52:19.540Z,98113.63
2022-10-15T03:54:49.865Z,98111.47
2022-10-15T03:57:21.821Z,98116.59
2022-10-15T04:00:08.712Z,98123.97
2022-10-15T04:02:43.520Z,98126.94
2022-10-15T04:05:24.848Z,98123.56
2022-10-15T04:07:58.821Z,98112.75
2022-10-15T04:10:30.338Z,98125.09
2022-10-15T04:12:59.499Z,98122.16
2022-10-15T04:15:29.091Z,98116.13
2022-10-15T04:18:05.334Z,98091.88
2022-10-15T04:20:34.228Z,98107.81
2022-10-15T04:23:13.012Z,98106.38
2022-10-15T04:25:46.753Z,98113.38
2022-10-15T04:28:15.821Z,98113.22
2022-10-15T04:30:47.878Z,98103.59
2022-10-15T04:33:20.483Z,98114.84
2022-10-15T04:36:13.569Z,98113.63
2022-10-15T04:38:54.218Z,98112.16
2022-10-15T04:41:44.360Z,98126.28
2022-10-15T04:44:39.420Z,98113.50
2022-10-15T04:47:08.569Z,98117.03
2022-10-15T04:49:50.868Z,98115.84
2022-10-15T04:52:49.216Z,98106.59
2022-10-15T04:55:19.439Z,98108.78
2022-10-15T04:57:49.146Z,98109.53
2022-10-15T05:00:24.641Z,98114.63
2022-10-15T05:03:13.769Z,98109.69
2022-10-15T05:06:21.258Z,98114.53
2022-10-15T05:08:53.271Z,98100.38
2022-10-15T05:11:32.041Z,98109.28
2022-10-15T05:14:00.903Z,98108.38
2022-10-15T05:16:32.466Z,98112.06
2022-10-15T05:19:06.664Z,98121.47
2022-10-15T05:21:37.973Z,98115.50
2022-10-15T05:24:14.585Z,98120.88
2022-10-15T05:26:57.533Z,98114.88
2022-10-15T05:29:30.216Z,98111.41
2022-10-15T05:31:59.107Z,98112.16
2022-10-15T05:34:31.276Z,98116.25
2022-10-15T05:37:04.301Z,98115.22
2022-10-15T05:39:33.885Z,98121.13
2022-10-15T05:42:02.695Z,98116.78
2022-10-15T05:44:39.466Z,98121.09
2022-10-15T05:47:12.393Z,98111.56
2022-10-15T05:49:42.961Z,98119.88
2022-10-15T05:52:19.578Z,98114.56
2022-10-15T05:55:03.548Z,98116.38
2022-10-15T05:57:32.432Z,98109.25
2022-10-15T06:00:09.594Z,98117.00
2022-10-15T06:02:41.878Z,98117.69
2022-10-15T06:05:10.822Z,98112.06
2022-10-15T06:07:39.737Z,98127.81
2022-10-15T06:10:08.858Z,98119.41
2022-10-15T06:12:39.781Z,98111.66
2022-10-15T06:15:08.915Z,98119.75
2022-10-15T06:17:38.197Z,98117.19
2022-10-15T06:20:07.600Z,98113.13
2022-10-15T06:25:06.984Z,98118.50
2022-10-15T06:27:35.899Z,98118.44
2022-10-15T06:30:05.320Z,98116.22
2022-10-15T06:32:34.270Z,98105.78
2022-10-15T06:35:03.169Z,98124.25
2022-10-15T06:37:35.390Z,98124.50
2022-10-15T06:40:04.375Z,98122.00
2022-10-15T06:42:35.550Z,98113.63
2022-10-15T06:45:04.990Z,98121.53
2022-10-15T06:47:34.032Z,98114.41
2022-10-15T06:50:03.061Z,98120.00
2022-10-15T06:52:32.646Z,98116.34
2022-10-15T06:55:01.993Z,98120.91
2022-10-15T06:57:32.454Z,98124.91
2022-10-15T07:00:01.261Z,98124.06
2022-10-15T07:02:33.102Z,98119.44
2022-10-15T07:05:02.200Z,98116.16
2022-10-15T07:07:31.662Z,98122.47
2022-10-15T07:10:00.471Z,98117.66
2022-10-15T07:12:29.342Z,98118.13
2022-10-15T07:14:58.321Z,98111.03
2022-10-15T07:17:27.110Z,98121.53
2022-10-15T07:19:55.979Z,98120.69
2022-10-15T07:22:25.214Z,98125.47
2022-10-15T07:24:54.523Z,98123.84
2022-10-15T07:27:23.371Z,98129.34
2022-10-15T07:29:53.959Z,98124.66
2022-10-15T07:32:22.993Z,98124.53
2022-10-15T07:34:52.167Z,98122.19
2022-10-15T07:37:20.945Z,98128.38
2022-10-15T07:39:49.802Z,98127.94
2022-10-15T07:42:18.690Z,98112.50
2022-10-15T07:44:47.558Z,98112.78
2022-10-15T07:47:18.187Z,98120.50
2022-10-15T07:49:47.108Z,98120.50
2022-10-15T07:52:16.168Z,98113.28
2022-10-15T07:54:45.124Z,98121.00
2022-10-15T07:57:18.911Z,98125.56
2022-10-15T07:59:49.443Z,98129.03
2022-10-15T08:02:20.103Z,98121.03
2022-10-15T08:04:49.273Z,98128.56
2022-10-15T08:07:18.131Z,98129.03
2022-10-15T08:12:20.583Z,98133.03
2022-10-15T08:14:49.491Z,98130.91
2022-10-15T08:17:19.745Z,98136.78
2022-10-15T08:19:48.788Z,98147.22
2022-10-15T08:22:17.679Z,98144.53
2022-10-15T08:24:46.645Z,98141.59
2022-10-15T08:27:15.790Z,98151.97
2022-10-15T08:29:45.195Z,98152.47
2022-10-15T08:32:14.608Z,98143.41
2022-10-15T08:34:43.552Z,98149.31
2022-10-15T08:37:12.456Z,98143.69
2022-10-15T08:39:41.543Z,98150.38
2022-10-15T08:42:34.751Z,98149.31
2022-10-15T08:45:12.228Z,98154.69
2022-10-15T08:47:52.180Z,98156.81
2022-10-15T08:50:44.059Z,98158.72
2022-10-15T08:53:22.465Z,98149.94
2022-10-15T08:55:56.484Z,98153.19
2022-10-15T08:58:39.707Z,98155.38
2022-10-15T09:01:30.346Z,98160.44
2022-10-15T09:04:31.085Z,98151.09
2022-10-15T09:07:32.468Z,98153.59
2022-10-15T09:10:27.467Z,98158.50
2022-10-15T09:13:16.637Z,98164.97
2022-10-15T09:15:54.344Z,98167.66
2022-10-15T09:18:26.110Z,98164.97
2022-10-15T09:20:55.814Z,98169.22
2022-10-15T09:23:28.805Z,98173.19
2022-10-15T09:26:27.027Z,98167.56
2022-10-15T09:29:14.941Z,98168.06
2022-10-15T09:31:51.499Z,98171.47
2022-10-15T09:35:01.038Z,98164.53
2022-10-15T09:38:13.771Z,98177.56
2022-10-15T09:40:53.267Z,98178.88
2022-10-15T09:43:32.532Z,98176.97
2022-10-15T09:46:01.880Z,98178.50
2022-10-15T09:48:41.371Z,98179.78
2022-10-15T09:51:34.886Z,98180.22
2022-10-15T09:54:23.896Z,98180.44
2022-10-15T09:56:57.797Z,98180.88
2022-10-15T09:59:26.922Z,98185.09
2022-10-15T10:01:59.599Z,98183.69
2022-10-15T10:04:31.365Z,98187.09
2022-10-15T10:07:05.615Z,98188.09
2022-10-15T10:09:58.793Z,98187.25
2022-10-15T10:12:34.855Z,98184.25
2022-10-15T10:15:27.134Z,98186.06
2022-10-15T10:17:58.084Z,98177.50
2022-10-15T10:20:31.670Z,98185.19
2022-10-15T10:23:03.042Z,98177.41
2022-10-15T10:25:35.044Z,98189.06
2022-10-15T10:28:06.881Z,98185.56
2022-10-15T10:30:59.032Z,98191.03
2022-10-15T10:33:51.140Z,98184.25
2022-10-15T10:36:27.820Z,98186.06
2022-10-15T10:39:04.525Z,98198.44
2022-10-15T10:41:54.943Z,98201.59
2022-10-15T10:44:47.586Z,98198.34
2022-10-15T10:47:19.148Z,98199.88
2022-10-15T10:49:54.246Z,98201.09
2022-10-15T10:52:36.073Z,98203.69
2022-10-15T10:55:19.563Z,98199.13
2022-10-15T10:57:54.690Z,98209.25
2022-10-15T11:00:41.713Z,98196.66
2022-10-15T11:03:56.282Z,98211.03
2022-10-15T11:06:47.955Z,98198.94
2022-10-15T11:09:46.357Z,98216.75
2022-10-15T11:12:36.248Z,98223.13
2022-10-15T11:15:11.196Z,98215.91
2022-10-15T11:17:45.831Z,98221.94
2022-10-15T11:20:59.845Z,98223.41
2022-10-15T11:23:42.778Z,98225.88
2022-10-15T11:26:46.025Z,98212.94
2022-10-15T11:29:54.738Z,98224.84
2022-10-15T11:32:54.511Z,98223.50
2022-10-15T11:35:59.029Z,98220.03
2022-10-15T11:38:42.725Z,98223.72
2022-10-15T11:41:20.654Z,98224.53
2022-10-15T11:44:04.475Z,98221.88
2022-10-15T11:46:45.788Z,98218.13
2022-10-15T11:49:27.850Z,98225.34
2022-10-15T11:52:05.051Z,98225.03
2022-10-15T11:54:41.381Z,98231.03
2022-10-15T11:57:14.610Z,98216.41
2022-10-15T11:59:58.785Z,98228.63
2022-10-15T12:02:37.022Z,98224.06
2022-10-15T12:05:35.925Z,98231.44
2022-10-15T12:08:05.862Z,98226.53
2022-10-15T12:11:06.013Z,98228.84
2022-10-15T12:13:49.510Z,98229.31
2022-10-15T12:16:30.245Z,98232.47
2022-10-15T12:19:17.522Z,98236.16
2022-10-15T12:22:07.402Z,98238.00
2022-10-15T12:24:40.240Z,98231.09
2022-10-15T12:27:21.348Z,98237.44
2022-10-15T12:30:14.837Z,98241.34
2022-10-15T12:32:49.254Z,98236.78
2022-10-15T12:35:32.064Z,98240.72
2022-10-15T12:38:31.584Z,98234.75
2022-10-15T12:41:10.232Z,98244.53
2022-10-15T12:43:51.950Z,98240.75
2022-10-15T12:46:20.931Z,98241.56
2022-10-15T12:48:54.609Z,98240.50
2022-10-15T12:51:23.393Z,98246.03
2022-10-15T12:53:58.378Z,98248.94
2022-10-15T12:56:42.222Z,98243.09
2022-10-15T12:59:50.749Z,98245.97
2022-10-15T13:02:35.572Z,98248.69
2022-10-15T13:05:07.360Z,98248.69
2022-10-15T13:07:41.533Z,98245.25
2022-10-15T13:10:25.898Z,98244.22
2022-10-15T13:12:58.501Z,98236.50
2022-10-15T13:15:30.447Z,98241.34
2022-10-15T13:18:05.806Z,98241.00
2022-10-15T13:20:43.811Z,98235.69
2022-10-15T13:23:30.693Z,98241.00
2022-10-15T13:26:20.068Z,98243.63
2022-10-15T13:28:51.715Z,98237.78
2022-10-15T13:31:33.032Z,98235.84
2022-10-15T13:34:29.360Z,98241.94
2022-10-15T13:37:01.241Z,98241.25
2022-10-15T13:39:41.178Z,98237.34
2022-10-15T13:42:14.449Z,98245.63
2022-10-15T13:44:44.797Z,98240.69
2022-10-15T13:47:25.906Z,98244.47
2022-10-15T13:50:19.694Z,98247.56
2022-10-15T13:53:00.113Z,98239.44
2022-10-15T13:55:37.478Z,98242.47
2022-10-15T13:58:22.259Z,98236.94
2022-10-15T14:00:57.607Z,98246.38
2022-10-15T14:03:32.917Z,98240.75
2022-10-15T14:06:19.348Z,98241.56
2022-10-15T14:08:50.686Z,98245.81
2022-10-15T14:11:20.116Z,98239.94
2022-10-15T14:13:54.575Z,98238.91
2022-10-15T14:16:31.572Z,98243.16
2022-10-15T14:19:11.815Z,98243.63
2022-10-15T14:21:47.806Z,98238.47
2022-10-15T14:24:22.614Z,98235.50
2022-10-15T14:26:51.995Z,98228.00
2022-10-15T14:29:20.958Z,98231.78
2022-10-15T14:31:50.521Z,98225.94
2022-10-15T14:34:39.148Z,98232.03
2022-10-15T14:37:33.195Z,98234.44
2022-10-15T14:40:05.191Z,98241.59
2022-10-15T14:42:35.034Z,98236.31
2022-10-15T14:45:20.697Z,98225.84
2022-10-15T14:47:52.368Z,98226.41
2022-10-15T14:50:24.161Z,98224.81
2022-10-15T14:52:55.451Z,98226.06
2022-10-15T14:55:24.981Z,98231.59
2022-10-15T14:57:54.115Z,98226.44
2022-10-15T15:00:59.564Z,98225.31
2022-10-15T15:03:31.941Z,98226.09
2022-10-15T15:06:01.062Z,98224.28
2022-10-15T15:08:30.129Z,98225.53
2022-10-15T15:11:01.652Z,98221.84
2022-10-15T15:13:39.199Z,98226.09
2022-10-15T15:16:10.367Z,98218.88
2022-10-15T15:18:39.344Z,98231.88
2022-10-15T15:21:11.325Z,98218.88
2022-10-15T15:23:40.283Z,98228.75
2022-10-15T15:26:09.031Z,98222.66
2022-10-15T15:28:37.876Z,98217.81
2022-10-15T15:31:18.493Z,98220.81
2022-10-15T15:33:47.416Z,98219.78
2022-10-15T15:36:22.496Z,98226.69
2022-10-15T15:38:53.293Z,98218.97
2022-10-15T15:41:24.549Z,98218.16
2022-10-15T15:43:55.547Z,98211.50
2022-10-15T15:46:24.424Z,98218.06
2022-10-15T15:48:53.364Z,98214.84
2022-10-15T15:51:32.745Z,98207.16
2022-10-15T15:54:05.113Z,98221.16
2022-10-15T15:56:35.502Z,98214.63
2022-10-15T15:59:04.380Z,98209.56
2022-10-15T16:01:33.715Z,98219.91
2022-10-15T16:04:03.110Z,98207.59
2022-10-15T16:06:32.000Z,98211.06
2022-10-15T16:09:00.885Z,98210.81
2022-10-15T16:11:29.752Z,98205.53
2022-10-15T16:13:58.738Z,98212.53
2022-10-15T16:16:28.208Z,98206.78
2022-10-15T16:18:57.210Z,98200.91
2022-10-15T16:21:27.086Z,98205.50
2022-10-15T16:23:56.361Z,98209.09
2022-10-15T16:26:25.226Z,98205.66
2022-10-15T16:28:54.175Z,98210.13
2022-10-15T16:31:29.514Z,98204.03
2022-10-15T16:33:59.816Z,98206.56
2022-10-15T16:36:28.707Z,98203.69
2022-10-15T16:38:57.928Z,98204.81
2022-10-15T16:41:26.734Z,98206.44
2022-10-15T16:43:55.793Z,98211.97
2022-10-15T16:46:24.805Z,98203.25
2022-10-15T16:48:58.380Z,98204.81
2022-10-15T16:51:28.229Z,98201.03
2022-10-15T16:54:00.030Z,98209.56
2022-10-15T16:56:32.066Z,98200.72
2022-10-15T16:59:01.146Z,98202.88
2022-10-15T17:01:31.251Z,98204.75
2022-10-15T17:04:01.073Z,98210.47
2022-10-15T17:06:31.623Z,98200.72
2022-10-15T17:09:05.322Z,98194.84
2022-10-15T17:11:37.175Z,98196.47
2022-10-15T17:14:09.703Z,98198.88
2022-10-15T17:16:41.873Z,98202.31
2022-10-15T17:19:12.067Z,98194.59
2022-10-15T17:21:42.661Z,98182.56
2022-10-15T17:24:15.126Z,98193.94
2022-10-15T17:26:45.354Z,98189.13
2022-10-15T17:29:20.959Z,98189.81
2022-10-15T17:31:51.049Z,98189.00
2022-10-15T17:34:20.069Z,98195.31
2022-10-15T17:36:50.480Z,98187.88
2022-10-15T17:39:22.328Z,98198.44
2022-10-15T17:41:55.040Z,98184.44
2022-10-15T17:44:23.918Z,98183.59
2022-10-15T17:46:53.169Z,98187.88
2022-10-15T17:49:28.746Z,98181.19
2022-10-15T17:51:57.543Z,98192.91
2022-10-15T17:54:26.355Z,98184.97
2022-10-15T17:56:55.273Z,98185.78
2022-10-15T17:59:25.150Z,98182.34
2022-10-15T18:01:59.302Z,98188.88
2022-10-15T18:04:30.622Z,98192.34
2022-10-15T18:06:59.551Z,98185.22
2022-10-15T18:09:28.952Z,98191.31
2022-10-15T18:12:01.277Z,98180.41
2022-10-15T18:14:32.361Z,98189.38
2022-10-15T18:17:01.524Z,98188.56
2022-10-15T18:19:30.554Z,98192.00
2022-10-15T18:21:59.533Z,98188.56
2022-10-15T18:24:28.354Z,98183.50
2022-10-15T18:26:57.159Z,98185.34
2022-10-15T18:29:26.542Z,98182.94
2022-10-15T18:31:58.167Z,98175.34
2022-10-15T18:34:29.032Z,98176.38
2022-10-15T18:36:58.158Z,98179.81
2022-10-15T18:39:27.598Z,98178.66
2022-10-15T18:41:57.044Z,98178.44
2022-10-15T18:44:26.121Z,98178.56
2022-10-15T18:46:54.883Z,98171.09
2022-10-15T18:49:23.751Z,98168.91
2022-10-15T18:51:53.467Z,98170.41
2022-10-15T18:54:22.940Z,98164.91
2022-10-15T18:56:53.282Z,98176.25
2022-10-15T18:59:22.526Z,98166.16
2022-10-15T19:01:55.152Z,98165.44
2022-10-15T19:04:25.026Z,98167.53
2022-10-15T19:06:55.566Z,98168.56
2022-10-15T19:09:27.008Z,98166.94
2022-10-15T19:11:57.679Z,98166.94
2022-10-15T19:14:31.029Z,98168.56
2022-10-15T19:17:00.061Z,98162.13
2022-10-15T19:19:30.133Z,98165.56
2022-10-15T19:21:59.045Z,98161.22
2022-10-15T19:24:28.496Z,98162.59
2022-10-15T19:26:57.305Z,98169.94
2022-10-15T19:29:26.188Z,98163.88
2022-10-15T19:31:56.299Z,98157.88
2022-10-15T19:34:25.634Z,98162.03
2022-10-15T19:36:54.513Z,98159.06
2022-10-15T19:39:25.251Z,98159.38
2022-10-15T19:41:54.412Z,98159.63
2022-10-15T19:44:26.171Z,98149.50
2022-10-15T19:46:56.377Z,98153.19
2022-10-15T19:49:25.983Z,98151.00
2022-10-15T19:51:56.180Z,98151.25
2022-10-15T19:56:58.715Z,98147.78
2022-10-15T19:59:27.764Z,98141.94
2022-10-15T20:01:57.522Z,98140.09
2022-10-15T20:04:26.513Z,98142.50
2022-10-15T20:06:55.331Z,98137.91
2022-10-15T20:09:24.252Z,98137.13
2022-10-15T20:11:53.043Z,98135.16
2022-10-15T20:14:21.834Z,98130.31
2022-10-15T20:16:50.580Z,98129.97
2022-10-15T20:19:22.615Z,98134.22
2022-10-15T20:21:51.447Z,98137.47
2022-10-15T20:24:20.265Z,98128.72
2022-10-15T20:26:51.280Z,98130.56
2022-10-15T20:29:20.242Z,98133.22
2022-10-15T20:31:51.851Z,98127.56
2022-10-15T20:34:20.756Z,98124.38
2022-10-15T20:36:53.715Z,98136.50
2022-10-15T20:39:23.655Z,98135.16
2022-10-15T20:41:52.723Z,98134.94
2022-10-15T20:44:21.492Z,98132.84
2022-10-15T20:46:54.868Z,98137.91
2022-10-15T20:49:30.692Z,98129.66
2022-10-15T20:51:59.981Z,98134.94
2022-10-15T20:54:28.797Z,98129.66
2022-10-15T20:56:57.682Z,98131.47
2022-10-15T20:59:29.536Z,98136.97
2022-10-15T21:02:00.268Z,98130.91
2022-10-15T21:04:29.720Z,98135.28
2022-10-15T21:06:58.923Z,98130.66
2022-10-15T21:09:27.766Z,98141.69
2022-10-15T21:11:56.604Z,98136.06
2022-10-15T21:14:25.428Z,98133.88
2022-10-15T21:16:54.308Z,98135.03
2022-10-15T21:19:23.134Z,98131.22
2022-10-15T21:21:51.972Z,98134.22
2022-10-15T21:24:21.121Z,98134.91
2022-10-15T21:26:49.858Z,98130.53
2022-10-15T21:29:18.639Z,98133.19
2022-10-15T21:31:48.311Z,98137.88
2022-10-15T21:34:17.120Z,98144.41
2022-10-15T21:36:45.947Z,98140.06
2022-10-15T21:39:14.834Z,98132.00
2022-10-15T21:41:43.661Z,98134.88
2022-10-15T21:44:12.595Z,98138.91
2022-10-15T21:46:42.826Z,98137.88
2022-10-15T21:49:11.764Z,98147.38
2022-10-15T21:51:41.003Z,98130.38
2022-10-15T21:54:10.113Z,98140.50
2022-10-15T21:56:39.529Z,98133.84
2022-10-15T21:59:08.889Z,98135.09
2022-10-15T22:01:39.258Z,98130.47
2022-10-15T22:04:10.573Z,98133.03
2022-10-15T22:06:40.745Z,98136.91
2022-10-15T22:09:11.683Z,98135.75
2022-10-15T22:11:42.799Z,98135.38
2022-10-15T22:14:13.597Z,98134.59
2022-10-15T22:16:42.838Z,98130.34
2022-10-15T22:19:15.075Z,98131.97
2022-10-15T22:21:44.306Z,98130.81
2022-10-15T22:24:17.623Z,98126.28
2022-10-15T22:26:49.634Z,98129.97
2022-10-15T22:29:30.621Z,98132.69
2022-10-15T22:32:03.524Z,98128.53
2022-10-15T22:34:32.463Z,98124.72
2022-10-15T22:37:01.341Z,98121.16
2022-10-15T22:39:30.304Z,98116.88
2022-10-15T22:41:59.215Z,98119.53
2022-10-15T22:44:28.060Z,98115.50
2022-10-15T22:46:56.886Z,98113.31
2022-10-15T22:49:26.481Z,98119.84
2022-10-15T22:51:55.261Z,98121.09
2022-10-15T22:54:24.172Z,98114.41
2022-10-15T22:56:53.138Z,98112.38
2022-10-15T22:59:22.004Z,98104.81
2022-10-15T23:01:51.947Z,98110.81
2022-10-15T23:04:20.973Z,98110.38
2022-10-15T23:06:50.181Z,98109.22
2022-10-15T23:09:20.527Z,98106.56
2022-10-15T23:11:49.480Z,98103.56
2022-10-15T23:14:18.508Z,98107.38
2022-10-15T23:16:48.541Z,98109.78
2022-10-15T23:19:22.753Z,98100.69
2022-10-15T23:21:52.286Z,98105.56
2022-10-15T23:24:23.849Z,98104.50
2022-10-15T23:26:53.477Z,98103.34
2022-10-15T23:29:25.311Z,98099.44
2022-10-15T23:31:55.325Z,98097.03
2022-10-15T23:34:26.531Z,98093.25
2022-10-15T23:36:55.453Z,98089.59
2022-10-15T23:39:27.371Z,98085.69
2022-10-15T23:41:56.391Z,98104.88
2022-10-15T23:44:29.174Z,98104.63
2022-10-15T23:46:58.165Z,98100.97
2022-10-15T23:49:27.257Z,98097.66
2022-10-15T23:51:56.147Z,98081.63
2022-10-15T23:54:24.958Z,98083.13
2022-10-15T23:56:53.767Z,98088.31
2022-10-15T23:59:22.837Z,98078.91
